EZY28N EDDH-EGKK
Flight info
| Callsign | EZY28N |
|---|---|
| Flight time | 1h 27m |
| Altitude | 38000 |
| Route | WSN5G/33 WSN N125 ITMIZ DCT GALSO Q63 ARREK Y4 TEBRA TEBRA2G |
| Aircraft | A320/M-SDE3FGHIRWY/LB1 |
Departure
| Time | 2026-04-23 20:12 |
|---|---|
| Airport | Hamburg Helmut Schmidt Airport (EDDH) |
Arrival
| Time | 2026-04-23 21:39 |
|---|---|
| Airport | London Gatwick Airport (EGKK) |
| Time | Latitude | Longitude | Altitude | Speed | Heading |
|---|---|---|---|---|---|
| 2026-04-23 19:52 | 53.63052 | 10.00027 | 46 ft | 0 kts | 319° |
| 2026-04-23 20:04 | 53.63038 | 10.00048 | 46 ft | 4 kts | 319° |
| 2026-04-23 20:04 | 53.63020 | 10.00073 | 48 ft | 3 kts | 319° |
| 2026-04-23 20:04 | 53.63008 | 10.00102 | 49 ft | 4 kts | 256° |
| 2026-04-23 20:04 | 53.63021 | 10.00132 | 46 ft | 3 kts | 213° |
| 2026-04-23 20:05 | 53.63025 | 10.00135 | 46 ft | 0 kts | 213° |
| 2026-04-23 20:07 | 53.63015 | 10.00125 | 45 ft | 7 kts | 213° |
| 2026-04-23 20:08 | 53.62949 | 10.00054 | 48 ft | 14 kts | 213° |
| 2026-04-23 20:08 | 53.62909 | 9.99957 | 50 ft | 0 kts | 243° |
| 2026-04-23 20:08 | 53.62909 | 9.99955 | 50 ft | 0 kts | 243° |
| 2026-04-23 20:08 | 53.62897 | 9.99918 | 50 ft | 6 kts | 243° |
| 2026-04-23 20:09 | 53.62872 | 9.99837 | 48 ft | 9 kts | 243° |
| 2026-04-23 20:09 | 53.62871 | 9.99738 | 47 ft | 10 kts | 327° |
| 2026-04-23 20:09 | 53.62880 | 9.99731 | 49 ft | 0 kts | 335° |
| 2026-04-23 20:11 | 53.62886 | 9.99726 | 50 ft | 6 kts | 335° |
| 2026-04-23 20:11 | 53.63090 | 9.99547 | 50 ft | 69 kts | 331° |
| 2026-04-23 20:11 | 53.63707 | 9.99014 | 47 ft | 128 kts | 333° |
| 2026-04-23 20:11 | 53.64633 | 9.98201 | 210 ft | 161 kts | 331° |
| 2026-04-23 20:12 | 53.65593 | 9.97377 | 1086 ft | 151 kts | 331° |
| 2026-04-23 20:12 | 53.66543 | 9.96576 | 1764 ft | 159 kts | 333° |
| 2026-04-23 20:12 | 53.67600 | 9.95679 | 2209 ft | 179 kts | 334° |
| 2026-04-23 20:12 | 53.68737 | 9.94710 | 2991 ft | 185 kts | 334° |
| 2026-04-23 20:13 | 53.69901 | 9.93716 | 3819 ft | 190 kts | 334° |
| 2026-04-23 20:13 | 53.71026 | 9.92521 | 4619 ft | 197 kts | 316° |
| 2026-04-23 20:13 | 53.71588 | 9.90333 | 5065 ft | 224 kts | 276° |
| 2026-04-23 20:13 | 53.71303 | 9.87551 | 5484 ft | 256 kts | 261° |
| 2026-04-23 20:14 | 53.70746 | 9.84600 | 6240 ft | 268 kts | 257° |
| 2026-04-23 20:14 | 53.70103 | 9.81610 | 7116 ft | 274 kts | 256° |
| 2026-04-23 20:14 | 53.69438 | 9.78569 | 7999 ft | 278 kts | 256° |
| 2026-04-23 20:14 | 53.68774 | 9.75478 | 8864 ft | 283 kts | 256° |
| 2026-04-23 20:15 | 53.68118 | 9.72321 | 9735 ft | 288 kts | 256° |
| 2026-04-23 20:15 | 53.67464 | 9.69091 | 10140 ft | 292 kts | 257° |
| 2026-04-23 20:15 | 53.66819 | 9.65869 | 10242 ft | 303 kts | 257° |
| 2026-04-23 20:15 | 53.66132 | 9.62361 | 10263 ft | 323 kts | 257° |
| 2026-04-23 20:16 | 53.65370 | 9.58760 | 10269 ft | 330 kts | 250° |
| 2026-04-23 20:16 | 53.64188 | 9.55408 | 10273 ft | 336 kts | 238° |
| 2026-04-23 20:16 | 53.62815 | 9.52223 | 10271 ft | 336 kts | 238° |
| 2026-04-23 20:16 | 53.61431 | 9.49009 | 10498 ft | 343 kts | 238° |
| 2026-04-23 20:17 | 53.60037 | 9.45764 | 11413 ft | 342 kts | 238° |
| 2026-04-23 20:17 | 53.58637 | 9.42502 | 12255 ft | 345 kts | 238° |
| 2026-04-23 20:17 | 53.57220 | 9.39203 | 13056 ft | 350 kts | 237° |
| 2026-04-23 20:17 | 53.55783 | 9.35862 | 13811 ft | 354 kts | 237° |
| 2026-04-23 20:18 | 53.54329 | 9.32478 | 14485 ft | 359 kts | 237° |
| 2026-04-23 20:18 | 53.52858 | 9.29061 | 15157 ft | 363 kts | 237° |
| 2026-04-23 20:18 | 53.51368 | 9.25617 | 15838 ft | 366 kts | 237° |
| 2026-04-23 20:18 | 53.49863 | 9.22153 | 16528 ft | 368 kts | 236° |
| 2026-04-23 20:19 | 53.48860 | 9.19849 | 16989 ft | 370 kts | 236° |
| 2026-04-23 20:19 | 53.47326 | 9.16330 | 17668 ft | 374 kts | 236° |
| 2026-04-23 20:19 | 53.45283 | 9.11641 | 18556 ft | 378 kts | 236° |
| 2026-04-23 20:19 | 53.43723 | 9.08063 | 19135 ft | 381 kts | 236° |
| 2026-04-23 20:20 | 53.42156 | 9.04473 | 19716 ft | 383 kts | 236° |
| 2026-04-23 20:20 | 53.40576 | 9.00854 | 20294 ft | 386 kts | 236° |
| 2026-04-23 20:20 | 53.39500 | 8.98388 | 20682 ft | 388 kts | 236° |
| 2026-04-23 20:20 | 53.37902 | 8.94729 | 21246 ft | 391 kts | 236° |
| 2026-04-23 20:21 | 53.36289 | 8.91048 | 21794 ft | 393 kts | 236° |
| 2026-04-23 20:21 | 53.34821 | 8.87257 | 22316 ft | 394 kts | 244° |
| 2026-04-23 20:21 | 53.33725 | 8.82991 | 22855 ft | 394 kts | 252° |
| 2026-04-23 20:21 | 53.32780 | 8.78670 | 23396 ft | 397 kts | 252° |
| 2026-04-23 20:22 | 53.31825 | 8.74330 | 23902 ft | 400 kts | 252° |
| 2026-04-23 20:22 | 53.30856 | 8.69961 | 24362 ft | 401 kts | 252° |
| 2026-04-23 20:22 | 53.29877 | 8.65573 | 24795 ft | 404 kts | 251° |
| 2026-04-23 20:22 | 53.28897 | 8.61165 | 25222 ft | 406 kts | 251° |
| 2026-04-23 20:23 | 53.27920 | 8.56723 | 25642 ft | 408 kts | 252° |
| 2026-04-23 20:23 | 53.26945 | 8.52259 | 26039 ft | 411 kts | 251° |
| 2026-04-23 20:23 | 53.25978 | 8.47754 | 26439 ft | 413 kts | 252° |
| 2026-04-23 20:23 | 53.25071 | 8.43183 | 26838 ft | 415 kts | 253° |
| 2026-04-23 20:24 | 53.24211 | 8.38573 | 27248 ft | 418 kts | 255° |
| 2026-04-23 20:24 | 53.23369 | 8.33914 | 27625 ft | 420 kts | 254° |
| 2026-04-23 20:24 | 53.22526 | 8.29245 | 28002 ft | 423 kts | 253° |
| 2026-04-23 20:24 | 53.21663 | 8.24539 | 28381 ft | 425 kts | 254° |
| 2026-04-23 20:25 | 53.20779 | 8.19821 | 28752 ft | 428 kts | 253° |
| 2026-04-23 20:25 | 53.19877 | 8.15083 | 29152 ft | 430 kts | 252° |
| 2026-04-23 20:25 | 53.18962 | 8.10322 | 29543 ft | 432 kts | 252° |
| 2026-04-23 20:25 | 53.18049 | 8.05542 | 29927 ft | 434 kts | 252° |
| 2026-04-23 20:26 | 53.17139 | 8.00739 | 30274 ft | 436 kts | 252° |
| 2026-04-23 20:26 | 53.16223 | 7.95902 | 30589 ft | 439 kts | 252° |
| 2026-04-23 20:26 | 53.15303 | 7.91043 | 30895 ft | 440 kts | 252° |
| 2026-04-23 20:26 | 53.14381 | 7.86173 | 31196 ft | 442 kts | 252° |
| 2026-04-23 20:27 | 53.13461 | 7.81334 | 31476 ft | 444 kts | 252° |
| 2026-04-23 20:27 | 53.12525 | 7.76433 | 31777 ft | 445 kts | 252° |
| 2026-04-23 20:27 | 53.11584 | 7.71531 | 32147 ft | 444 kts | 252° |
| 2026-04-23 20:27 | 53.10630 | 7.66652 | 32554 ft | 443 kts | 249° |
| 2026-04-23 20:28 | 53.09404 | 7.61977 | 33001 ft | 439 kts | 244° |
| 2026-04-23 20:28 | 53.08118 | 7.57388 | 33546 ft | 435 kts | 244° |
| 2026-04-23 20:28 | 53.06844 | 7.52832 | 33965 ft | 433 kts | 244° |
| 2026-04-23 20:28 | 53.05576 | 7.48292 | 34361 ft | 432 kts | 245° |
| 2026-04-23 20:29 | 53.04314 | 7.43776 | 34757 ft | 429 kts | 244° |
| 2026-04-23 20:29 | 53.03056 | 7.39282 | 35063 ft | 429 kts | 244° |
| 2026-04-23 20:29 | 53.01790 | 7.34775 | 35289 ft | 431 kts | 243° |
| 2026-04-23 20:29 | 53.00517 | 7.30257 | 35544 ft | 431 kts | 243° |
| 2026-04-23 20:30 | 52.99246 | 7.25756 | 35814 ft | 431 kts | 244° |
| 2026-04-23 20:30 | 52.96687 | 7.16742 | 36320 ft | 431 kts | 243° |
| 2026-04-23 20:30 | 52.95407 | 7.12244 | 36607 ft | 431 kts | 243° |
| 2026-04-23 20:31 | 52.94133 | 7.07758 | 36863 ft | 430 kts | 243° |
| 2026-04-23 20:31 | 52.92859 | 7.03269 | 37135 ft | 430 kts | 244° |
| 2026-04-23 20:31 | 52.91586 | 6.98798 | 37412 ft | 429 kts | 244° |
| 2026-04-23 20:31 | 52.90309 | 6.94331 | 37649 ft | 428 kts | 243° |
| 2026-04-23 20:32 | 52.89029 | 6.89876 | 37889 ft | 428 kts | 243° |
| 2026-04-23 20:32 | 52.87749 | 6.85428 | 38132 ft | 428 kts | 243° |
| 2026-04-23 20:32 | 52.86469 | 6.80986 | 38326 ft | 428 kts | 244° |
| 2026-04-23 20:32 | 52.85204 | 6.76604 | 38372 ft | 427 kts | 243° |
| 2026-04-23 20:33 | 52.82645 | 6.67759 | 38370 ft | 426 kts | 243° |
| 2026-04-23 20:33 | 52.80075 | 6.58912 | 38373 ft | 428 kts | 243° |
| 2026-04-23 20:34 | 52.77486 | 6.50050 | 38370 ft | 427 kts | 243° |
| 2026-04-23 20:34 | 52.74903 | 6.41223 | 38380 ft | 427 kts | 243° |
| 2026-04-23 20:35 | 52.72322 | 6.32408 | 38381 ft | 427 kts | 242° |
| 2026-04-23 20:35 | 52.69730 | 6.23596 | 38385 ft | 427 kts | 242° |
| 2026-04-23 20:36 | 52.67125 | 6.14806 | 38396 ft | 427 kts | 242° |
| 2026-04-23 20:36 | 52.64510 | 6.06014 | 38397 ft | 427 kts | 242° |
| 2026-04-23 20:37 | 52.61898 | 5.97239 | 38412 ft | 427 kts | 242° |
| 2026-04-23 20:37 | 52.59280 | 5.88478 | 38411 ft | 427 kts | 242° |
| 2026-04-23 20:38 | 52.56656 | 5.79728 | 38408 ft | 427 kts | 242° |
| 2026-04-23 20:38 | 52.54026 | 5.70989 | 38407 ft | 427 kts | 242° |
| 2026-04-23 20:39 | 52.51386 | 5.62267 | 38424 ft | 427 kts | 241° |
| 2026-04-23 20:39 | 52.48756 | 5.53606 | 38424 ft | 427 kts | 241° |
| 2026-04-23 20:40 | 52.46105 | 5.44895 | 38434 ft | 427 kts | 241° |
| 2026-04-23 20:40 | 52.43446 | 5.36200 | 38430 ft | 426 kts | 240° |
| 2026-04-23 20:41 | 52.40782 | 5.27522 | 38423 ft | 426 kts | 240° |
| 2026-04-23 20:41 | 52.38118 | 5.18847 | 38422 ft | 426 kts | 240° |
| 2026-04-23 20:42 | 52.35438 | 5.10189 | 38420 ft | 427 kts | 240° |
| 2026-04-23 20:42 | 52.32748 | 5.01532 | 38424 ft | 427 kts | 240° |
| 2026-04-23 20:43 | 52.30055 | 4.92881 | 38434 ft | 427 kts | 240° |
| 2026-04-23 20:43 | 52.27367 | 4.84232 | 38431 ft | 426 kts | 240° |
| 2026-04-23 20:44 | 52.24670 | 4.75617 | 38431 ft | 426 kts | 240° |
| 2026-04-23 20:44 | 52.21957 | 4.67025 | 38420 ft | 426 kts | 239° |
| 2026-04-23 20:45 | 52.19245 | 4.58442 | 38418 ft | 426 kts | 239° |
| 2026-04-23 20:45 | 52.16544 | 4.49921 | 38417 ft | 426 kts | 239° |
| 2026-04-23 20:46 | 52.13817 | 4.41344 | 38416 ft | 426 kts | 239° |
| 2026-04-23 20:46 | 52.11084 | 4.32770 | 38413 ft | 427 kts | 239° |
| 2026-04-23 20:47 | 52.08346 | 4.24195 | 38422 ft | 427 kts | 239° |
| 2026-04-23 20:47 | 52.05600 | 4.15640 | 38421 ft | 427 kts | 239° |
| 2026-04-23 20:48 | 52.02841 | 4.07100 | 38431 ft | 427 kts | 239° |
| 2026-04-23 20:48 | 52.00079 | 3.98561 | 38426 ft | 427 kts | 239° |
| 2026-04-23 20:49 | 51.97311 | 3.90033 | 38442 ft | 427 kts | 239° |
| 2026-04-23 20:49 | 51.94542 | 3.81519 | 38426 ft | 427 kts | 239° |
| 2026-04-23 20:50 | 51.91779 | 3.73072 | 38412 ft | 427 kts | 238° |
| 2026-04-23 20:50 | 51.88992 | 3.64577 | 38066 ft | 426 kts | 238° |
| 2026-04-23 20:51 | 51.87599 | 3.60346 | 37789 ft | 426 kts | 238° |
| 2026-04-23 20:51 | 51.86208 | 3.56124 | 37522 ft | 426 kts | 238° |
| 2026-04-23 20:51 | 51.84810 | 3.51874 | 37241 ft | 426 kts | 238° |
| 2026-04-23 20:51 | 51.83411 | 3.47633 | 36987 ft | 427 kts | 238° |
| 2026-04-23 20:52 | 51.82009 | 3.43410 | 36742 ft | 427 kts | 238° |
| 2026-04-23 20:52 | 51.80605 | 3.39190 | 36489 ft | 426 kts | 238° |
| 2026-04-23 20:52 | 51.79209 | 3.34988 | 36230 ft | 423 kts | 238° |
| 2026-04-23 20:52 | 51.77821 | 3.30814 | 35981 ft | 421 kts | 237° |
| 2026-04-23 20:53 | 51.76436 | 3.26662 | 35740 ft | 419 kts | 237° |
| 2026-04-23 20:53 | 51.75058 | 3.22539 | 35463 ft | 416 kts | 237° |
| 2026-04-23 20:53 | 51.73821 | 3.18321 | 34971 ft | 417 kts | 245° |
| 2026-04-23 20:53 | 51.73017 | 3.13810 | 34456 ft | 421 kts | 255° |
| 2026-04-23 20:54 | 51.72595 | 3.09135 | 33905 ft | 420 kts | 257° |
| 2026-04-23 20:54 | 51.72200 | 3.04480 | 33404 ft | 417 kts | 257° |
| 2026-04-23 20:54 | 51.71802 | 2.99886 | 32901 ft | 413 kts | 257° |
| 2026-04-23 20:54 | 51.71402 | 2.95310 | 32405 ft | 410 kts | 257° |
| 2026-04-23 20:55 | 51.71003 | 2.90760 | 31907 ft | 407 kts | 257° |
| 2026-04-23 20:55 | 51.70607 | 2.86258 | 31430 ft | 404 kts | 256° |
| 2026-04-23 20:55 | 51.70212 | 2.81791 | 30955 ft | 401 kts | 256° |
| 2026-04-23 20:55 | 51.69820 | 2.77359 | 30496 ft | 398 kts | 256° |
| 2026-04-23 20:56 | 51.69427 | 2.72958 | 29997 ft | 394 kts | 256° |
| 2026-04-23 20:56 | 51.69036 | 2.68623 | 29570 ft | 388 kts | 257° |
| 2026-04-23 20:56 | 51.68655 | 2.64346 | 29148 ft | 383 kts | 257° |
| 2026-04-23 20:56 | 51.68279 | 2.60130 | 28734 ft | 378 kts | 257° |
| 2026-04-23 20:57 | 51.67904 | 2.55964 | 28329 ft | 373 kts | 257° |
| 2026-04-23 20:57 | 51.67533 | 2.51849 | 27917 ft | 369 kts | 257° |
| 2026-04-23 20:57 | 51.67164 | 2.47777 | 27520 ft | 365 kts | 257° |
| 2026-04-23 20:57 | 51.66796 | 2.43745 | 27104 ft | 362 kts | 257° |
| 2026-04-23 20:58 | 51.66428 | 2.39749 | 26691 ft | 360 kts | 257° |
| 2026-04-23 20:58 | 51.66059 | 2.35775 | 26265 ft | 357 kts | 257° |
| 2026-04-23 20:58 | 51.65692 | 2.31833 | 25831 ft | 356 kts | 257° |
| 2026-04-23 20:58 | 51.65331 | 2.27901 | 25405 ft | 354 kts | 258° |
| 2026-04-23 20:59 | 51.64969 | 2.23986 | 24962 ft | 353 kts | 258° |
| 2026-04-23 20:59 | 51.64600 | 2.20083 | 24517 ft | 352 kts | 258° |
| 2026-04-23 20:59 | 51.64231 | 2.16186 | 24073 ft | 352 kts | 258° |
| 2026-04-23 20:59 | 51.63867 | 2.12340 | 23584 ft | 351 kts | 258° |
| 2026-04-23 21:00 | 51.63503 | 2.08464 | 23142 ft | 349 kts | 258° |
| 2026-04-23 21:00 | 51.63144 | 2.04616 | 22715 ft | 346 kts | 258° |
| 2026-04-23 21:00 | 51.62791 | 2.00790 | 22286 ft | 344 kts | 258° |
| 2026-04-23 21:00 | 51.62442 | 1.96996 | 21868 ft | 342 kts | 258° |
| 2026-04-23 21:01 | 51.62092 | 1.93215 | 21452 ft | 341 kts | 258° |
| 2026-04-23 21:01 | 51.61742 | 1.89449 | 21037 ft | 339 kts | 258° |
| 2026-04-23 21:01 | 51.61230 | 1.85777 | 20620 ft | 335 kts | 249° |
| 2026-04-23 21:01 | 51.60282 | 1.82384 | 20200 ft | 330 kts | 237° |
| 2026-04-23 21:02 | 51.59437 | 1.80369 | 19924 ft | 327 kts | 228° |
| 2026-04-23 21:02 | 51.57435 | 1.76700 | 19375 ft | 325 kts | 225° |
| 2026-04-23 21:02 | 51.55936 | 1.73982 | 18974 ft | 325 kts | 226° |
| 2026-04-23 21:02 | 51.54441 | 1.71262 | 18557 ft | 325 kts | 227° |
| 2026-04-23 21:03 | 51.52947 | 1.68544 | 18129 ft | 324 kts | 226° |
| 2026-04-23 21:03 | 51.51458 | 1.65845 | 17740 ft | 322 kts | 225° |
| 2026-04-23 21:03 | 51.50472 | 1.64060 | 17479 ft | 321 kts | 226° |
| 2026-04-23 21:03 | 51.49109 | 1.61223 | 17091 ft | 322 kts | 237° |
| 2026-04-23 21:04 | 51.48147 | 1.57976 | 16697 ft | 324 kts | 248° |
| 2026-04-23 21:04 | 51.47379 | 1.54582 | 16317 ft | 324 kts | 249° |
| 2026-04-23 21:04 | 51.46607 | 1.51192 | 15950 ft | 324 kts | 248° |
| 2026-04-23 21:04 | 51.45825 | 1.47805 | 15570 ft | 324 kts | 247° |
| 2026-04-23 21:05 | 51.45037 | 1.44411 | 15188 ft | 325 kts | 248° |
| 2026-04-23 21:05 | 51.44239 | 1.41030 | 14808 ft | 325 kts | 245° |
| 2026-04-23 21:05 | 51.43122 | 1.37905 | 14433 ft | 323 kts | 231° |
| 2026-04-23 21:05 | 51.41588 | 1.35320 | 14192 ft | 318 kts | 217° |
| 2026-04-23 21:06 | 51.39823 | 1.33196 | 13969 ft | 317 kts | 213° |
| 2026-04-23 21:06 | 51.38052 | 1.31103 | 13765 ft | 316 kts | 213° |
| 2026-04-23 21:06 | 51.36285 | 1.29009 | 13553 ft | 315 kts | 214° |
| 2026-04-23 21:06 | 51.34524 | 1.26918 | 13345 ft | 315 kts | 214° |
| 2026-04-23 21:07 | 51.32768 | 1.24834 | 13128 ft | 314 kts | 214° |
| 2026-04-23 21:07 | 51.31022 | 1.22769 | 12924 ft | 310 kts | 214° |
| 2026-04-23 21:07 | 51.29290 | 1.20729 | 12722 ft | 309 kts | 213° |
| 2026-04-23 21:07 | 51.27559 | 1.18692 | 12511 ft | 309 kts | 213° |
| 2026-04-23 21:08 | 51.25827 | 1.16658 | 12306 ft | 309 kts | 213° |
| 2026-04-23 21:08 | 51.24099 | 1.14632 | 12098 ft | 308 kts | 214° |
| 2026-04-23 21:08 | 51.22379 | 1.12615 | 11893 ft | 307 kts | 214° |
| 2026-04-23 21:08 | 51.20663 | 1.10603 | 11685 ft | 306 kts | 214° |
| 2026-04-23 21:09 | 51.18945 | 1.08586 | 11481 ft | 306 kts | 213° |
| 2026-04-23 21:09 | 51.17232 | 1.06577 | 11273 ft | 305 kts | 213° |
| 2026-04-23 21:09 | 51.15517 | 1.04572 | 11067 ft | 305 kts | 213° |
| 2026-04-23 21:09 | 51.13811 | 1.02579 | 10866 ft | 304 kts | 213° |
| 2026-04-23 21:10 | 51.12109 | 1.00590 | 10662 ft | 303 kts | 213° |
| 2026-04-23 21:10 | 51.10425 | 0.98625 | 10462 ft | 303 kts | 213° |
| 2026-04-23 21:10 | 51.08724 | 0.96643 | 10253 ft | 303 kts | 213° |
| 2026-04-23 21:10 | 51.07038 | 0.94645 | 10033 ft | 302 kts | 218° |
| 2026-04-23 21:11 | 51.05599 | 0.92212 | 9860 ft | 303 kts | 232° |
| 2026-04-23 21:11 | 51.04565 | 0.89291 | 9661 ft | 304 kts | 244° |
| 2026-04-23 21:11 | 51.03668 | 0.86250 | 9458 ft | 304 kts | 243° |
| 2026-04-23 21:11 | 51.02771 | 0.83226 | 9259 ft | 302 kts | 243° |
| 2026-04-23 21:12 | 51.01874 | 0.80216 | 9067 ft | 302 kts | 243° |
| 2026-04-23 21:12 | 51.00977 | 0.77209 | 8871 ft | 300 kts | 243° |
| 2026-04-23 21:12 | 51.00081 | 0.74212 | 8649 ft | 299 kts | 243° |
| 2026-04-23 21:12 | 50.99189 | 0.71241 | 8472 ft | 298 kts | 243° |
| 2026-04-23 21:13 | 50.98295 | 0.68269 | 8271 ft | 298 kts | 243° |
| 2026-04-23 21:13 | 50.97405 | 0.65315 | 8088 ft | 296 kts | 243° |
| 2026-04-23 21:13 | 50.96519 | 0.62371 | 7872 ft | 295 kts | 243° |
| 2026-04-23 21:13 | 50.95635 | 0.59439 | 7682 ft | 295 kts | 243° |
| 2026-04-23 21:14 | 50.94750 | 0.56513 | 7487 ft | 294 kts | 243° |
| 2026-04-23 21:14 | 50.93867 | 0.53600 | 7284 ft | 293 kts | 243° |
| 2026-04-23 21:14 | 50.92986 | 0.50699 | 7092 ft | 292 kts | 243° |
| 2026-04-23 21:14 | 50.92135 | 0.47781 | 6889 ft | 292 kts | 249° |
| 2026-04-23 21:15 | 50.91686 | 0.44657 | 6690 ft | 292 kts | 265° |
| 2026-04-23 21:15 | 50.91782 | 0.41460 | 6481 ft | 291 kts | 282° |
| 2026-04-23 21:15 | 50.92317 | 0.38382 | 6321 ft | 289 kts | 288° |
| 2026-04-23 21:15 | 50.92882 | 0.35362 | 6528 ft | 278 kts | 287° |
| 2026-04-23 21:16 | 50.93395 | 0.32561 | 6773 ft | 254 kts | 287° |
| 2026-04-23 21:16 | 50.93892 | 0.29842 | 7018 ft | 259 kts | 287° |
| 2026-04-23 21:16 | 50.94395 | 0.27094 | 7258 ft | 261 kts | 287° |
| 2026-04-23 21:16 | 50.95071 | 0.24445 | 7378 ft | 259 kts | 307° |
| 2026-04-23 21:17 | 50.96365 | 0.22537 | 7413 ft | 253 kts | 335° |
| 2026-04-23 21:17 | 50.98011 | 0.21765 | 7422 ft | 245 kts | 1° |
| 2026-04-23 21:17 | 50.99660 | 0.22168 | 7429 ft | 238 kts | 26° |
| 2026-04-23 21:17 | 51.01021 | 0.23571 | 7431 ft | 232 kts | 49° |
| 2026-04-23 21:18 | 51.01892 | 0.25691 | 7434 ft | 229 kts | 71° |
| 2026-04-23 21:18 | 51.02151 | 0.28162 | 7437 ft | 228 kts | 93° |
| 2026-04-23 21:18 | 51.01859 | 0.30640 | 7440 ft | 229 kts | 104° |
| 2026-04-23 21:18 | 51.01425 | 0.33076 | 7440 ft | 229 kts | 105° |
| 2026-04-23 21:19 | 51.00967 | 0.35464 | 7441 ft | 229 kts | 106° |
| 2026-04-23 21:19 | 51.00494 | 0.37917 | 7441 ft | 229 kts | 106° |
| 2026-04-23 21:19 | 51.00028 | 0.40338 | 7440 ft | 229 kts | 106° |
| 2026-04-23 21:19 | 50.99335 | 0.42578 | 7437 ft | 232 kts | 126° |
| 2026-04-23 21:20 | 50.98105 | 0.44295 | 7435 ft | 237 kts | 148° |
| 2026-04-23 21:20 | 50.96520 | 0.45065 | 7430 ft | 243 kts | 173° |
| 2026-04-23 21:20 | 50.94838 | 0.44683 | 7423 ft | 250 kts | 199° |
| 2026-04-23 21:20 | 50.93404 | 0.43158 | 7419 ft | 256 kts | 225° |
| 2026-04-23 21:21 | 50.92502 | 0.40677 | 7417 ft | 261 kts | 254° |
| 2026-04-23 21:21 | 50.92395 | 0.37867 | 7416 ft | 260 kts | 282° |
| 2026-04-23 21:21 | 50.92846 | 0.35088 | 7417 ft | 261 kts | 287° |
| 2026-04-23 21:21 | 50.93360 | 0.32330 | 7415 ft | 261 kts | 288° |
| 2026-04-23 21:22 | 50.93889 | 0.29578 | 7415 ft | 261 kts | 288° |
| 2026-04-23 21:22 | 50.94416 | 0.26823 | 7416 ft | 261 kts | 288° |
| 2026-04-23 21:22 | 50.95161 | 0.24234 | 7413 ft | 258 kts | 310° |
| 2026-04-23 21:22 | 50.96505 | 0.22433 | 7418 ft | 252 kts | 338° |
| 2026-04-23 21:23 | 50.98154 | 0.21667 | 7426 ft | 247 kts | 353° |
| 2026-04-23 21:23 | 50.99774 | 0.20737 | 7429 ft | 253 kts | 328° |
| 2026-04-23 21:23 | 51.00939 | 0.18630 | 7425 ft | 259 kts | 297° |
| 2026-04-23 21:23 | 51.01358 | 0.15853 | 7420 ft | 261 kts | 275° |
| 2026-04-23 21:24 | 51.01449 | 0.12969 | 7419 ft | 262 kts | 271° |
| 2026-04-23 21:24 | 51.01497 | 0.10079 | 7414 ft | 262 kts | 271° |
| 2026-04-23 21:24 | 51.01537 | 0.07182 | 7412 ft | 262 kts | 271° |
| 2026-04-23 21:24 | 51.01576 | 0.04292 | 7407 ft | 262 kts | 271° |
| 2026-04-23 21:25 | 51.01615 | 0.01395 | 7403 ft | 262 kts | 271° |
| 2026-04-23 21:25 | 51.01653 | -0.01501 | 7385 ft | 262 kts | 271° |
| 2026-04-23 21:25 | 51.01694 | -0.04409 | 7388 ft | 264 kts | 271° |
| 2026-04-23 21:25 | 51.01735 | -0.07327 | 7385 ft | 265 kts | 271° |
| 2026-04-23 21:26 | 51.01774 | -0.10233 | 7169 ft | 262 kts | 271° |
| 2026-04-23 21:26 | 51.01815 | -0.13126 | 6847 ft | 261 kts | 271° |
| 2026-04-23 21:26 | 51.01855 | -0.16003 | 6510 ft | 260 kts | 271° |
| 2026-04-23 21:26 | 51.01896 | -0.18870 | 6165 ft | 259 kts | 271° |
| 2026-04-23 21:27 | 51.01894 | -0.21715 | 5825 ft | 257 kts | 265° |
| 2026-04-23 21:27 | 51.01700 | -0.24528 | 5487 ft | 256 kts | 262° |
| 2026-04-23 21:27 | 51.01473 | -0.27318 | 5158 ft | 254 kts | 261° |
| 2026-04-23 21:27 | 51.01244 | -0.30096 | 4822 ft | 253 kts | 261° |
| 2026-04-23 21:28 | 51.01018 | -0.32858 | 4487 ft | 252 kts | 261° |
| 2026-04-23 21:28 | 51.00797 | -0.35617 | 4144 ft | 251 kts | 261° |
| 2026-04-23 21:28 | 51.00579 | -0.38358 | 4006 ft | 250 kts | 261° |
| 2026-04-23 21:28 | 51.00362 | -0.41101 | 4009 ft | 251 kts | 261° |
| 2026-04-23 21:29 | 51.00148 | -0.43855 | 4012 ft | 252 kts | 261° |
| 2026-04-23 21:29 | 50.99931 | -0.46606 | 4011 ft | 251 kts | 261° |
| 2026-04-23 21:29 | 50.99722 | -0.49361 | 4010 ft | 251 kts | 265° |
| 2026-04-23 21:29 | 51.00018 | -0.51987 | 4009 ft | 236 kts | 297° |
| 2026-04-23 21:30 | 51.00809 | -0.54148 | 4008 ft | 220 kts | 305° |
| 2026-04-23 21:30 | 51.01632 | -0.56123 | 4008 ft | 210 kts | 306° |
| 2026-04-23 21:30 | 51.02447 | -0.58047 | 4014 ft | 209 kts | 306° |
| 2026-04-23 21:30 | 51.03279 | -0.59933 | 4038 ft | 208 kts | 314° |
| 2026-04-23 21:31 | 51.04456 | -0.61128 | 4027 ft | 200 kts | 345° |
| 2026-04-23 21:31 | 51.05784 | -0.61757 | 4015 ft | 199 kts | 350° |
| 2026-04-23 21:31 | 51.07125 | -0.62194 | 4003 ft | 194 kts | 6° |
| 2026-04-23 21:31 | 51.08350 | -0.61566 | 4017 ft | 183 kts | 37° |
| 2026-04-23 21:32 | 51.09269 | -0.60250 | 4007 ft | 175 kts | 65° |
| 2026-04-23 21:32 | 51.09590 | -0.58421 | 4016 ft | 172 kts | 88° |
| 2026-04-23 21:32 | 51.09763 | -0.56535 | 4014 ft | 173 kts | 80° |
| 2026-04-23 21:32 | 51.10024 | -0.54671 | 4013 ft | 172 kts | 83° |
| 2026-04-23 21:33 | 51.10168 | -0.52790 | 4012 ft | 169 kts | 86° |
| 2026-04-23 21:33 | 51.10268 | -0.51017 | 4000 ft | 155 kts | 85° |
| 2026-04-23 21:33 | 51.10518 | -0.49364 | 3837 ft | 152 kts | 78° |
| 2026-04-23 21:33 | 51.10781 | -0.47738 | 3647 ft | 151 kts | 79° |
| 2026-04-23 21:34 | 51.11024 | -0.46116 | 3450 ft | 150 kts | 80° |
| 2026-04-23 21:34 | 51.11260 | -0.44507 | 3248 ft | 149 kts | 79° |
| 2026-04-23 21:34 | 51.11496 | -0.42904 | 3088 ft | 148 kts | 79° |
| 2026-04-23 21:34 | 51.11718 | -0.41299 | 2862 ft | 148 kts | 80° |
| 2026-04-23 21:35 | 51.11938 | -0.39710 | 2664 ft | 146 kts | 80° |
| 2026-04-23 21:35 | 51.12157 | -0.38135 | 2467 ft | 145 kts | 80° |
| 2026-04-23 21:35 | 51.12373 | -0.36589 | 2272 ft | 142 kts | 80° |
| 2026-04-23 21:35 | 51.12584 | -0.35082 | 2099 ft | 133 kts | 80° |
| 2026-04-23 21:36 | 51.12951 | -0.32448 | 1740 ft | 118 kts | 79° |
| 2026-04-23 21:36 | 51.13128 | -0.31182 | 1572 ft | 117 kts | 78° |
| 2026-04-23 21:36 | 51.13302 | -0.29931 | 1417 ft | 115 kts | 78° |
| 2026-04-23 21:37 | 51.13474 | -0.28690 | 1279 ft | 115 kts | 78° |
| 2026-04-23 21:37 | 51.13648 | -0.27442 | 1108 ft | 117 kts | 76° |
| 2026-04-23 21:37 | 51.13826 | -0.26164 | 941 ft | 119 kts | 77° |
| 2026-04-23 21:37 | 51.14006 | -0.24865 | 776 ft | 121 kts | 76° |
| 2026-04-23 21:38 | 51.14188 | -0.23548 | 609 ft | 122 kts | 77° |
| 2026-04-23 21:38 | 51.14371 | -0.22229 | 446 ft | 123 kts | 76° |
| 2026-04-23 21:38 | 51.14555 | -0.20916 | 272 ft | 121 kts | 77° |
| 2026-04-23 21:38 | 51.14728 | -0.19661 | 214 ft | 103 kts | 78° |
| 2026-04-23 21:39 | 51.14844 | -0.18802 | 208 ft | 54 kts | 75° |
| 2026-04-23 21:39 | 51.14956 | -0.18488 | 217 ft | 12 kts | 52° |
| 2026-04-23 21:39 | 51.15011 | -0.18378 | 217 ft | 11 kts | 51° |
| 2026-04-23 21:39 | 51.15033 | -0.18336 | 212 ft | 2 kts | 51° |
| 2026-04-23 21:40 | 51.15039 | -0.18323 | 209 ft | 0 kts | 51° |
| 2026-04-23 21:41 | 51.15053 | -0.18296 | 215 ft | 7 kts | 50° |
| 2026-04-23 21:41 | 51.15100 | -0.18205 | 207 ft | 13 kts | 50° |
| 2026-04-23 21:42 | 51.15159 | -0.18169 | 205 ft | 9 kts | 352° |
| 2026-04-23 21:42 | 51.15238 | -0.18228 | 211 ft | 16 kts | 332° |
| 2026-04-23 21:42 | 51.15363 | -0.18273 | 205 ft | 21 kts | 348° |
| 2026-04-23 21:42 | 51.15490 | -0.18316 | 205 ft | 16 kts | 348° |
| 2026-04-23 21:43 | 51.15586 | -0.18349 | 210 ft | 7 kts | 347° |
| 2026-04-23 21:43 | 51.15647 | -0.18328 | 206 ft | 12 kts | 60° |
| 2026-04-23 21:43 | 51.15672 | -0.18170 | 205 ft | 18 kts | 76° |
| 2026-04-23 21:43 | 51.15702 | -0.17954 | 205 ft | 22 kts | 82° |
| 2026-04-23 21:44 | 51.15723 | -0.17792 | 213 ft | 15 kts | 77° |